Waverly, AL (36879)

6:56 AM CST on February 13, 2016 (GMT -0600)
APRSWXNET | | Change Station
CLOSE
Current Station
Personal Weather Station
Location: Auburn, AL
Elevation: 708 ft
Nearby Weather Stations

Elev 708 ft 32.63 °N, 85.47 °W | Updated 30 minutes ago

Clear
Clear
33 °F
Feels Like 33 °F
N
0
Wind Variable Wind from SE
Gusts 1.0 mph

Today
High -- | Low -- °F
--% Chance of Precip.
Yesterday
High -- | Low -- °F
Precip. -- in
Pressure 30.40 in
Visibility 10.0 miles
Clouds Clear
Windchill 33 °F
Dew Point 19 °F
Humidity 55%
Rainfall in
Snow Depth Not available.
6:27 AM 5:25 PM
Waxing Crescent, 30% visible
METAR KAUO 131156Z AUTO 34009KT 10SM CLR 01/M08 A3032 RMK AO2 SLP294 T00111083 10078 20011 53021 FZRANO
Pressure 30.40 in
Visibility 10.0 miles
Clouds Clear
Windchill 33 °F
Dew Point 19 °F
Humidity 55%
Rainfall in
Snow Depth Not available.
6:27 AM 5:25 PM
Waxing Crescent, 30% visible
METAR KAUO 131156Z AUTO 34009KT 10SM CLR 01/M08 A3032 RMK AO2 SLP294 T00111083 10078 20011 53021 FZRANO

10-Day Weather Forecast

Almanac

Astronomy

Feb. 13, 2016 Rise Set
Actual Time
Civil Twilight
Nautical Twilight
Astronomical Twilight
Moon
Length of Visible Light
Length of Day
Tomorrow will be .
, % of the Moon is Illuminated

Today's Extremes

State Highs State Lows

Community

WunderPhotos

Upload Photos

1,892,543 photos uploaded!

WunderBlog® & News

Nearby

Air Quality

  Air Quality AQ Index Pollutant
Not available.

Snow Depth

Station Depth Elevation

Earthquake Activity

City Distance Mag. Time & Date
Minimum magnitude displayed is 2.5.

Coastal Water Temperatures

Place Temperature

Stations

Nearby Weather Stations

Station Location Temp. Windchill Dew Point Humidity Wind Precip. Elev Updated Type
                   

Watches & Warnings

There are currently no watches in effect.